sensor_id;sensor_type;location;lat;lon;timestamp;temperature;humidity
74294;DHT22;64044;59.904;10.738;2024-02-16T00:00:17;4.90;74.00
74294;DHT22;64044;59.904;10.738;2024-02-16T00:02:44;4.90;74.10
74294;DHT22;64044;59.904;10.738;2024-02-16T00:05:12;4.90;74.10
74294;DHT22;64044;59.904;10.738;2024-02-16T00:07:40;4.90;74.00
74294;DHT22;64044;59.904;10.738;2024-02-16T00:10:07;4.90;74.10
74294;DHT22;64044;59.904;10.738;2024-02-16T00:12:34;4.90;74.00
74294;DHT22;64044;59.904;10.738;2024-02-16T00:15:01;4.90;73.90
74294;DHT22;64044;59.904;10.738;2024-02-16T00:17:27;4.90;74.00
74294;DHT22;64044;59.904;10.738;2024-02-16T00:19:54;4.90;74.00
74294;DHT22;64044;59.904;10.738;2024-02-16T00:22:19;4.90;73.90
74294;DHT22;64044;59.904;10.738;2024-02-16T00:24:46;5.00;74.10
74294;DHT22;64044;59.904;10.738;2024-02-16T00:27:12;4.90;74.00
74294;DHT22;64044;59.904;10.738;2024-02-16T00:29:37;5.00;74.00
74294;DHT22;64044;59.904;10.738;2024-02-16T00:32:06;5.00;74.00
74294;DHT22;64044;59.904;10.738;2024-02-16T00:34:33;4.90;74.00
74294;DHT22;64044;59.904;10.738;2024-02-16T00:37:00;5.00;74.10
74294;DHT22;64044;59.904;10.738;2024-02-16T00:39:25;5.00;74.00
74294;DHT22;64044;59.904;10.738;2024-02-16T00:41:51;5.00;74.00
74294;DHT22;64044;59.904;10.738;2024-02-16T00:44:17;5.00;74.00
74294;DHT22;64044;59.904;10.738;2024-02-16T00:46:44;5.10;74.00
74294;DHT22;64044;59.904;10.738;2024-02-16T00:49:10;5.00;73.90
74294;DHT22;64044;59.904;10.738;2024-02-16T00:51:40;5.00;73.90
74294;DHT22;64044;59.904;10.738;2024-02-16T00:54:06;5.10;74.00
74294;DHT22;64044;59.904;10.738;2024-02-16T00:56:35;5.10;74.00
74294;DHT22;64044;59.904;10.738;2024-02-16T00:59:01;5.10;74.00
74294;DHT22;64044;59.904;10.738;2024-02-16T01:01:27;5.10;74.00
74294;DHT22;64044;59.904;10.738;2024-02-16T01:03:53;5.10;74.00
74294;DHT22;64044;59.904;10.738;2024-02-16T01:06:18;5.10;73.90
74294;DHT22;64044;59.904;10.738;2024-02-16T01:08:44;5.10;74.00
74294;DHT22;64044;59.904;10.738;2024-02-16T01:11:10;5.10;74.10
74294;DHT22;64044;59.904;10.738;2024-02-16T01:13:36;5.10;74.30
74294;DHT22;64044;59.904;10.738;2024-02-16T01:16:03;5.10;74.20
74294;DHT22;64044;59.904;10.738;2024-02-16T01:18:29;5.10;74.30
74294;DHT22;64044;59.904;10.738;2024-02-16T01:20:55;5.10;74.30
74294;DHT22;64044;59.904;10.738;2024-02-16T01:23:21;5.10;74.20
74294;DHT22;64044;59.904;10.738;2024-02-16T01:25:47;5.10;74.30
74294;DHT22;64044;59.904;10.738;2024-02-16T01:28:13;5.10;74.30
74294;DHT22;64044;59.904;10.738;2024-02-16T01:30:40;5.10;74.40
74294;DHT22;64044;59.904;10.738;2024-02-16T01:33:06;5.20;74.60
74294;DHT22;64044;59.904;10.738;2024-02-16T01:35:33;5.20;74.60
74294;DHT22;64044;59.904;10.738;2024-02-16T01:37:58;5.10;74.50
74294;DHT22;64044;59.904;10.738;2024-02-16T01:40:24;5.20;74.60
74294;DHT22;64044;59.904;10.738;2024-02-16T01:42:52;5.20;74.60
74294;DHT22;64044;59.904;10.738;2024-02-16T01:45:20;5.20;74.60
74294;DHT22;64044;59.904;10.738;2024-02-16T01:47:49;5.20;74.70
74294;DHT22;64044;59.904;10.738;2024-02-16T01:50:16;5.20;74.70
74294;DHT22;64044;59.904;10.738;2024-02-16T01:52:43;5.20;74.70
74294;DHT22;64044;59.904;10.738;2024-02-16T01:55:09;5.20;74.80
74294;DHT22;64044;59.904;10.738;2024-02-16T01:57:46;5.30;74.80
74294;DHT22;64044;59.904;10.738;2024-02-16T02:00:13;5.30;75.00
74294;DHT22;64044;59.904;10.738;2024-02-16T02:02:40;5.20;74.80
74294;DHT22;64044;59.904;10.738;2024-02-16T02:05:09;5.30;74.80
74294;DHT22;64044;59.904;10.738;2024-02-16T02:07:35;5.20;74.90
74294;DHT22;64044;59.904;10.738;2024-02-16T02:10:00;5.30;75.00
74294;DHT22;64044;59.904;10.738;2024-02-16T02:12:26;5.30;75.00
74294;DHT22;64044;59.904;10.738;2024-02-16T02:14:52;5.30;75.00
74294;DHT22;64044;59.904;10.738;2024-02-16T02:17:18;5.30;75.00
74294;DHT22;64044;59.904;10.738;2024-02-16T02:19:45;5.30;75.00
74294;DHT22;64044;59.904;10.738;2024-02-16T02:22:19;5.30;75.00
74294;DHT22;64044;59.904;10.738;2024-02-16T02:24:48;5.30;75.10
74294;DHT22;64044;59.904;10.738;2024-02-16T02:27:15;5.30;75.00
74294;DHT22;64044;59.904;10.738;2024-02-16T02:29:41;5.30;75.00
74294;DHT22;64044;59.904;10.738;2024-02-16T02:32:08;5.30;75.00
74294;DHT22;64044;59.904;10.738;2024-02-16T02:34:33;5.30;75.00
74294;DHT22;64044;59.904;10.738;2024-02-16T02:36:59;5.30;75.00
74294;DHT22;64044;59.904;10.738;2024-02-16T02:39:25;5.30;75.10
74294;DHT22;64044;59.904;10.738;2024-02-16T02:41:51;5.40;75.10
74294;DHT22;64044;59.904;10.738;2024-02-16T02:44:18;5.30;75.00
74294;DHT22;64044;59.904;10.738;2024-02-16T02:46:44;5.40;75.20
74294;DHT22;64044;59.904;10.738;2024-02-16T02:49:10;5.40;75.30
74294;DHT22;64044;59.904;10.738;2024-02-16T02:51:36;5.40;75.30
74294;DHT22;64044;59.904;10.738;2024-02-16T02:54:01;5.40;75.30
74294;DHT22;64044;59.904;10.738;2024-02-16T02:56:27;5.40;75.30
74294;DHT22;64044;59.904;10.738;2024-02-16T02:58:53;5.40;75.30
74294;DHT22;64044;59.904;10.738;2024-02-16T03:01:19;5.40;75.30
74294;DHT22;64044;59.904;10.738;2024-02-16T03:03:47;5.40;75.10
74294;DHT22;64044;59.904;10.738;2024-02-16T03:06:20;5.40;75.20
74294;DHT22;64044;59.904;10.738;2024-02-16T03:08:46;5.40;75.20
74294;DHT22;64044;59.904;10.738;2024-02-16T03:11:12;5.40;75.10
74294;DHT22;64044;59.904;10.738;2024-02-16T03:13:38;5.40;75.10
74294;DHT22;64044;59.904;10.738;2024-02-16T03:16:04;5.40;75.10
74294;DHT22;64044;59.904;10.738;2024-02-16T03:18:31;5.40;75.10
74294;DHT22;64044;59.904;10.738;2024-02-16T03:20:57;5.40;75.10
74294;DHT22;64044;59.904;10.738;2024-02-16T03:23:23;5.40;75.10
74294;DHT22;64044;59.904;10.738;2024-02-16T03:25:49;5.40;75.20
74294;DHT22;64044;59.904;10.738;2024-02-16T03:28:15;5.40;75.20
74294;DHT22;64044;59.904;10.738;2024-02-16T03:30:42;5.40;75.30
74294;DHT22;64044;59.904;10.738;2024-02-16T03:33:08;5.40;75.20
74294;DHT22;64044;59.904;10.738;2024-02-16T03:36:00;5.40;75.20
74294;DHT22;64044;59.904;10.738;2024-02-16T03:38:26;5.40;75.60
74294;DHT22;64044;59.904;10.738;2024-02-16T03:40:51;5.50;75.10
74294;DHT22;64044;59.904;10.738;2024-02-16T03:43:17;5.40;75.10
74294;DHT22;64044;59.904;10.738;2024-02-16T03:45:43;5.40;75.10
74294;DHT22;64044;59.904;10.738;2024-02-16T03:48:09;5.40;75.10
74294;DHT22;64044;59.904;10.738;2024-02-16T03:50:35;5.50;75.10
74294;DHT22;64044;59.904;10.738;2024-02-16T03:53:00;5.40;75.10
74294;DHT22;64044;59.904;10.738;2024-02-16T03:55:26;5.50;75.30
74294;DHT22;64044;59.904;10.738;2024-02-16T03:57:52;5.50;75.20
74294;DHT22;64044;59.904;10.738;2024-02-16T04:00:17;5.50;75.20
74294;DHT22;64044;59.904;10.738;2024-02-16T04:02:43;5.50;75.10
74294;DHT22;64044;59.904;10.738;2024-02-16T04:05:10;5.50;75.10
74294;DHT22;64044;59.904;10.738;2024-02-16T04:07:36;5.50;75.10
74294;DHT22;64044;59.904;10.738;2024-02-16T04:10:02;5.50;75.10
74294;DHT22;64044;59.904;10.738;2024-02-16T04:12:32;5.50;75.20
74294;DHT22;64044;59.904;10.738;2024-02-16T04:14:58;5.50;75.20
74294;DHT22;64044;59.904;10.738;2024-02-16T04:17:24;5.50;75.10
74294;DHT22;64044;59.904;10.738;2024-02-16T04:19:49;5.60;75.20
74294;DHT22;64044;59.904;10.738;2024-02-16T04:22:15;5.60;75.20
74294;DHT22;64044;59.904;10.738;2024-02-16T04:24:41;5.60;75.20
74294;DHT22;64044;59.904;10.738;2024-02-16T04:27:06;5.60;75.20
74294;DHT22;64044;59.904;10.738;2024-02-16T04:29:32;5.60;75.10
74294;DHT22;64044;59.904;10.738;2024-02-16T04:31:58;5.60;74.90
74294;DHT22;64044;59.904;10.738;2024-02-16T04:34:23;5.60;75.00
74294;DHT22;64044;59.904;10.738;2024-02-16T04:36:49;5.60;75.00
74294;DHT22;64044;59.904;10.738;2024-02-16T04:39:15;5.60;74.90
74294;DHT22;64044;59.904;10.738;2024-02-16T04:41:42;5.60;74.90
74294;DHT22;64044;59.904;10.738;2024-02-16T04:44:08;5.60;74.90
74294;DHT22;64044;59.904;10.738;2024-02-16T04:46:34;5.60;75.00
74294;DHT22;64044;59.904;10.738;2024-02-16T04:48:59;5.60;75.00
74294;DHT22;64044;59.904;10.738;2024-02-16T04:51:25;5.60;75.10
74294;DHT22;64044;59.904;10.738;2024-02-16T04:53:51;5.60;75.10
74294;DHT22;64044;59.904;10.738;2024-02-16T04:56:16;5.60;75.20
74294;DHT22;64044;59.904;10.738;2024-02-16T04:58:42;5.60;75.00
74294;DHT22;64044;59.904;10.738;2024-02-16T05:01:08;5.60;75.00
74294;DHT22;64044;59.904;10.738;2024-02-16T05:03:34;5.60;75.10
74294;DHT22;64044;59.904;10.738;2024-02-16T05:06:00;5.60;75.00
74294;DHT22;64044;59.904;10.738;2024-02-16T05:08:26;5.60;75.20
74294;DHT22;64044;59.904;10.738;2024-02-16T05:10:52;5.60;75.20
74294;DHT22;64044;59.904;10.738;2024-02-16T05:13:17;5.60;75.20
74294;DHT22;64044;59.904;10.738;2024-02-16T05:15:43;5.60;75.20
74294;DHT22;64044;59.904;10.738;2024-02-16T05:18:09;5.60;75.20
74294;DHT22;64044;59.904;10.738;2024-02-16T05:20:37;5.70;75.20
74294;DHT22;64044;59.904;10.738;2024-02-16T05:23:03;5.60;75.20
74294;DHT22;64044;59.904;10.738;2024-02-16T05:25:29;5.60;75.20
74294;DHT22;64044;59.904;10.738;2024-02-16T05:27:55;5.70;75.20
74294;DHT22;64044;59.904;10.738;2024-02-16T05:30:21;5.70;75.20
74294;DHT22;64044;59.904;10.738;2024-02-16T05:32:46;5.70;75.20
74294;DHT22;64044;59.904;10.738;2024-02-16T05:35:13;5.70;75.20
74294;DHT22;64044;59.904;10.738;2024-02-16T05:37:44;5.70;75.30
74294;DHT22;64044;59.904;10.738;2024-02-16T05:40:11;5.70;75.20
74294;DHT22;64044;59.904;10.738;2024-02-16T05:42:55;5.70;75.20
74294;DHT22;64044;59.904;10.738;2024-02-16T05:45:25;5.70;75.20
74294;DHT22;64044;59.904;10.738;2024-02-16T05:47:53;5.70;75.30
74294;DHT22;64044;59.904;10.738;2024-02-16T05:50:20;5.70;75.20
74294;DHT22;64044;59.904;10.738;2024-02-16T05:52:46;5.70;75.30
74294;DHT22;64044;59.904;10.738;2024-02-16T05:55:12;5.80;75.30
74294;DHT22;64044;59.904;10.738;2024-02-16T05:57:39;5.70;75.20
74294;DHT22;64044;59.904;10.738;2024-02-16T06:00:06;5.80;75.30
74294;DHT22;64044;59.904;10.738;2024-02-16T06:02:32;5.70;75.20
74294;DHT22;64044;59.904;10.738;2024-02-16T06:04:59;5.80;75.30
74294;DHT22;64044;59.904;10.738;2024-02-16T06:07:25;5.70;75.20
74294;DHT22;64044;59.904;10.738;2024-02-16T06:09:51;5.80;75.20
74294;DHT22;64044;59.904;10.738;2024-02-16T06:12:17;5.70;75.10
74294;DHT22;64044;59.904;10.738;2024-02-16T06:14:43;5.70;74.90
74294;DHT22;64044;59.904;10.738;2024-02-16T06:17:08;5.70;74.80
74294;DHT22;64044;59.904;10.738;2024-02-16T06:19:37;5.70;74.60
74294;DHT22;64044;59.904;10.738;2024-02-16T06:22:03;5.70;74.40
74294;DHT22;64044;59.904;10.738;2024-02-16T06:24:29;5.70;74.30
74294;DHT22;64044;59.904;10.738;2024-02-16T06:26:55;5.60;74.30
74294;DHT22;64044;59.904;10.738;2024-02-16T06:29:20;5.60;74.40
74294;DHT22;64044;59.904;10.738;2024-02-16T06:31:47;5.50;74.30
74294;DHT22;64044;59.904;10.738;2024-02-16T06:34:15;5.50;74.40
74294;DHT22;64044;59.904;10.738;2024-02-16T06:36:42;5.50;74.40
74294;DHT22;64044;59.904;10.738;2024-02-16T06:39:08;5.50;74.50
74294;DHT22;64044;59.904;10.738;2024-02-16T06:41:35;5.40;74.50
74294;DHT22;64044;59.904;10.738;2024-02-16T06:44:01;5.40;74.60
74294;DHT22;64044;59.904;10.738;2024-02-16T06:46:27;5.40;74.60
74294;DHT22;64044;59.904;10.738;2024-02-16T06:48:55;5.30;74.60
74294;DHT22;64044;59.904;10.738;2024-02-16T06:51:25;5.30;74.70
74294;DHT22;64044;59.904;10.738;2024-02-16T06:53:52;5.30;74.80
74294;DHT22;64044;59.904;10.738;2024-02-16T06:56:18;5.20;74.80
74294;DHT22;64044;59.904;10.738;2024-02-16T06:58:47;5.20;74.70
74294;DHT22;64044;59.904;10.738;2024-02-16T07:01:16;5.20;74.90
74294;DHT22;64044;59.904;10.738;2024-02-16T07:03:43;5.20;74.90
74294;DHT22;64044;59.904;10.738;2024-02-16T07:06:09;5.20;75.40
74294;DHT22;64044;59.904;10.738;2024-02-16T07:08:39;5.20;74.60
74294;DHT22;64044;59.904;10.738;2024-02-16T07:11:05;5.10;74.70
74294;DHT22;64044;59.904;10.738;2024-02-16T07:13:32;5.10;74.80
74294;DHT22;64044;59.904;10.738;2024-02-16T07:15:58;5.10;74.90
74294;DHT22;64044;59.904;10.738;2024-02-16T07:18:24;5.10;75.00
74294;DHT22;64044;59.904;10.738;2024-02-16T07:20:50;5.10;75.20
74294;DHT22;64044;59.904;10.738;2024-02-16T07:23:15;5.00;75.30
74294;DHT22;64044;59.904;10.738;2024-02-16T07:25:41;5.00;75.40
74294;DHT22;64044;59.904;10.738;2024-02-16T07:28:08;5.10;75.60
74294;DHT22;64044;59.904;10.738;2024-02-16T07:30:34;5.10;75.70
74294;DHT22;64044;59.904;10.738;2024-02-16T07:33:02;5.10;75.70
74294;DHT22;64044;59.904;10.738;2024-02-16T07:35:27;5.10;75.70
74294;DHT22;64044;59.904;10.738;2024-02-16T07:37:53;5.10;75.70
74294;DHT22;64044;59.904;10.738;2024-02-16T07:40:20;5.10;75.80
74294;DHT22;64044;59.904;10.738;2024-02-16T07:42:46;5.10;75.80
74294;DHT22;64044;59.904;10.738;2024-02-16T07:45:12;5.10;75.80
74294;DHT22;64044;59.904;10.738;2024-02-16T07:47:41;5.10;75.90
74294;DHT22;64044;59.904;10.738;2024-02-16T07:50:07;5.10;75.90
74294;DHT22;64044;59.904;10.738;2024-02-16T07:52:33;5.10;75.80
74294;DHT22;64044;59.904;10.738;2024-02-16T07:54:59;5.10;75.70
74294;DHT22;64044;59.904;10.738;2024-02-16T07:57:25;5.10;75.70
74294;DHT22;64044;59.904;10.738;2024-02-16T07:59:50;5.10;75.70
74294;DHT22;64044;59.904;10.738;2024-02-16T08:02:16;5.10;75.70
74294;DHT22;64044;59.904;10.738;2024-02-16T08:04:46;5.10;75.90
74294;DHT22;64044;59.904;10.738;2024-02-16T08:07:12;5.10;75.90
74294;DHT22;64044;59.904;10.738;2024-02-16T08:09:38;5.10;76.10
74294;DHT22;64044;59.904;10.738;2024-02-16T08:12:05;5.20;76.20
74294;DHT22;64044;59.904;10.738;2024-02-16T08:14:31;5.20;76.20
74294;DHT22;64044;59.904;10.738;2024-02-16T08:16:58;5.20;76.20
74294;DHT22;64044;59.904;10.738;2024-02-16T08:19:23;5.20;76.30
74294;DHT22;64044;59.904;10.738;2024-02-16T08:21:56;5.20;76.30
74294;DHT22;64044;59.904;10.738;2024-02-16T08:24:22;5.20;76.30
74294;DHT22;64044;59.904;10.738;2024-02-16T08:26:48;5.30;76.30
74294;DHT22;64044;59.904;10.738;2024-02-16T08:29:13;5.30;76.30
74294;DHT22;64044;59.904;10.738;2024-02-16T08:31:39;5.30;76.20
74294;DHT22;64044;59.904;10.738;2024-02-16T08:34:04;5.30;76.20
74294;DHT22;64044;59.904;10.738;2024-02-16T08:36:32;5.30;76.20
74294;DHT22;64044;59.904;10.738;2024-02-16T08:38:59;5.30;76.10
74294;DHT22;64044;59.904;10.738;2024-02-16T08:41:25;5.30;76.10
74294;DHT22;64044;59.904;10.738;2024-02-16T08:43:51;5.30;76.10
74294;DHT22;64044;59.904;10.738;2024-02-16T08:46:16;5.30;76.00
74294;DHT22;64044;59.904;10.738;2024-02-16T08:48:44;5.30;76.00
74294;DHT22;64044;59.904;10.738;2024-02-16T08:51:10;5.40;76.00
74294;DHT22;64044;59.904;10.738;2024-02-16T08:53:36;5.40;76.00
74294;DHT22;64044;59.904;10.738;2024-02-16T08:56:02;5.30;75.90
74294;DHT22;64044;59.904;10.738;2024-02-16T08:58:28;5.30;75.90
74294;DHT22;64044;59.904;10.738;2024-02-16T09:00:53;5.30;75.90
74294;DHT22;64044;59.904;10.738;2024-02-16T09:03:19;5.30;75.80
74294;DHT22;64044;59.904;10.738;2024-02-16T09:05:45;5.30;75.80
74294;DHT22;64044;59.904;10.738;2024-02-16T09:08:11;5.40;75.80
74294;DHT22;64044;59.904;10.738;2024-02-16T09:10:37;5.30;75.70
74294;DHT22;64044;59.904;10.738;2024-02-16T09:13:03;5.30;75.70
74294;DHT22;64044;59.904;10.738;2024-02-16T09:15:28;5.30;75.70
74294;DHT22;64044;59.904;10.738;2024-02-16T09:17:54;5.30;75.70
74294;DHT22;64044;59.904;10.738;2024-02-16T09:20:20;5.30;75.70
74294;DHT22;64044;59.904;10.738;2024-02-16T09:22:48;5.30;75.80
74294;DHT22;64044;59.904;10.738;2024-02-16T09:25:14;5.30;75.80
74294;DHT22;64044;59.904;10.738;2024-02-16T09:27:41;5.30;75.80
74294;DHT22;64044;59.904;10.738;2024-02-16T09:30:11;5.30;75.80
74294;DHT22;64044;59.904;10.738;2024-02-16T09:32:41;5.30;75.70
74294;DHT22;64044;59.904;10.738;2024-02-16T09:35:08;5.30;75.70
74294;DHT22;64044;59.904;10.738;2024-02-16T09:37:35;5.30;75.50
74294;DHT22;64044;59.904;10.738;2024-02-16T09:40:03;5.30;75.20
74294;DHT22;64044;59.904;10.738;2024-02-16T09:42:30;5.30;75.10
74294;DHT22;64044;59.904;10.738;2024-02-16T09:44:58;5.30;75.00
74294;DHT22;64044;59.904;10.738;2024-02-16T09:47:25;5.20;74.90
74294;DHT22;64044;59.904;10.738;2024-02-16T09:49:55;5.20;75.00
74294;DHT22;64044;59.904;10.738;2024-02-16T09:52:22;5.10;74.90
74294;DHT22;64044;59.904;10.738;2024-02-16T09:54:49;5.10;74.90
74294;DHT22;64044;59.904;10.738;2024-02-16T09:57:19;5.00;75.00
74294;DHT22;64044;59.904;10.738;2024-02-16T09:59:45;5.00;75.00
74294;DHT22;64044;59.904;10.738;2024-02-16T10:02:11;4.90;75.00
74294;DHT22;64044;59.904;10.738;2024-02-16T10:04:37;4.90;75.10
74294;DHT22;64044;59.904;10.738;2024-02-16T10:07:04;4.80;75.30
74294;DHT22;64044;59.904;10.738;2024-02-16T10:09:33;4.80;75.50
74294;DHT22;64044;59.904;10.738;2024-02-16T10:12:00;4.80;75.70
74294;DHT22;64044;59.904;10.738;2024-02-16T10:14:26;4.80;75.90
74294;DHT22;64044;59.904;10.738;2024-02-16T10:17:04;4.80;76.10
74294;DHT22;64044;59.904;10.738;2024-02-16T10:19:32;4.80;76.50
74294;DHT22;64044;59.904;10.738;2024-02-16T10:22:11;4.80;76.50
74294;DHT22;64044;59.904;10.738;2024-02-16T10:24:38;4.80;76.60
74294;DHT22;64044;59.904;10.738;2024-02-16T10:27:05;4.90;76.80
74294;DHT22;64044;59.904;10.738;2024-02-16T10:29:33;4.90;76.90
74294;DHT22;64044;59.904;10.738;2024-02-16T10:32:00;5.00;77.00
74294;DHT22;64044;59.904;10.738;2024-02-16T10:34:28;5.00;77.00
74294;DHT22;64044;59.904;10.738;2024-02-16T10:36:56;5.00;77.10
74294;DHT22;64044;59.904;10.738;2024-02-16T10:39:23;5.10;76.90
74294;DHT22;64044;59.904;10.738;2024-02-16T10:41:51;5.10;76.70
74294;DHT22;64044;59.904;10.738;2024-02-16T10:44:18;5.10;76.60
74294;DHT22;64044;59.904;10.738;2024-02-16T10:46:44;5.10;76.30
74294;DHT22;64044;59.904;10.738;2024-02-16T10:49:10;5.10;76.30
74294;DHT22;64044;59.904;10.738;2024-02-16T10:51:47;5.10;76.20
74294;DHT22;64044;59.904;10.738;2024-02-16T10:54:15;5.10;76.30
74294;DHT22;64044;59.904;10.738;2024-02-16T10:56:43;5.20;76.30
74294;DHT22;64044;59.904;10.738;2024-02-16T10:59:10;5.20;76.40
74294;DHT22;64044;59.904;10.738;2024-02-16T11:01:41;5.20;76.50
74294;DHT22;64044;59.904;10.738;2024-02-16T11:04:11;5.20;76.50
74294;DHT22;64044;59.904;10.738;2024-02-16T11:06:56;5.20;76.40
74294;DHT22;64044;59.904;10.738;2024-02-16T11:09:37;5.20;76.30
74294;DHT22;64044;59.904;10.738;2024-02-16T11:12:07;5.20;75.90
74294;DHT22;64044;59.904;10.738;2024-02-16T11:14:37;5.20;75.80
74294;DHT22;64044;59.904;10.738;2024-02-16T11:17:11;5.20;75.80
74294;DHT22;64044;59.904;10.738;2024-02-16T11:19:45;5.20;75.90
74294;DHT22;64044;59.904;10.738;2024-02-16T11:22:18;5.20;76.10
74294;DHT22;64044;59.904;10.738;2024-02-16T11:27:13;5.20;76.20
74294;DHT22;64044;59.904;10.738;2024-02-16T11:29:45;5.20;76.20
74294;DHT22;64044;59.904;10.738;2024-02-16T11:32:12;5.20;76.30
74294;DHT22;64044;59.904;10.738;2024-02-16T11:34:38;5.20;76.30
74294;DHT22;64044;59.904;10.738;2024-02-16T11:37:05;5.30;76.40
74294;DHT22;64044;59.904;10.738;2024-02-16T11:39:32;5.30;76.50
74294;DHT22;64044;59.904;10.738;2024-02-16T11:42:06;5.30;76.40
74294;DHT22;64044;59.904;10.738;2024-02-16T11:44:34;5.30;76.40
74294;DHT22;64044;59.904;10.738;2024-02-16T11:47:02;5.40;76.50
74294;DHT22;64044;59.904;10.738;2024-02-16T11:49:29;5.40;76.50
74294;DHT22;64044;59.904;10.738;2024-02-16T11:52:04;5.40;76.40
74294;DHT22;64044;59.904;10.738;2024-02-16T11:54:30;5.50;76.50
74294;DHT22;64044;59.904;10.738;2024-02-16T11:56:57;5.50;76.40
74294;DHT22;64044;59.904;10.738;2024-02-16T11:59:23;5.50;76.30
74294;DHT22;64044;59.904;10.738;2024-02-16T12:04:29;5.60;76.20
74294;DHT22;64044;59.904;10.738;2024-02-16T12:07:00;5.60;76.20
74294;DHT22;64044;59.904;10.738;2024-02-16T12:09:26;5.60;75.90
74294;DHT22;64044;59.904;10.738;2024-02-16T12:11:53;5.60;75.70
74294;DHT22;64044;59.904;10.738;2024-02-16T12:14:22;5.60;75.60
74294;DHT22;64044;59.904;10.738;2024-02-16T12:16:49;5.60;75.60
74294;DHT22;64044;59.904;10.738;2024-02-16T12:19:15;5.60;75.50
74294;DHT22;64044;59.904;10.738;2024-02-16T12:21:41;5.70;75.50
74294;DHT22;64044;59.904;10.738;2024-02-16T12:24:07;5.70;75.40
74294;DHT22;64044;59.904;10.738;2024-02-16T12:26:33;5.60;75.50
74294;DHT22;64044;59.904;10.738;2024-02-16T12:28:59;5.70;75.40
74294;DHT22;64044;59.904;10.738;2024-02-16T12:31:24;5.70;75.40
74294;DHT22;64044;59.904;10.738;2024-02-16T12:33:52;5.70;75.20
74294;DHT22;64044;59.904;10.738;2024-02-16T12:36:18;5.70;75.20
74294;DHT22;64044;59.904;10.738;2024-02-16T12:38:43;5.70;75.20
74294;DHT22;64044;59.904;10.738;2024-02-16T12:41:09;5.70;75.20
74294;DHT22;64044;59.904;10.738;2024-02-16T12:43:35;5.70;75.10
74294;DHT22;64044;59.904;10.738;2024-02-16T12:46:01;5.80;74.90
74294;DHT22;64044;59.904;10.738;2024-02-16T12:48:29;5.80;74.80
74294;DHT22;64044;59.904;10.738;2024-02-16T12:50:55;5.70;74.70
74294;DHT22;64044;59.904;10.738;2024-02-16T12:53:22;5.70;74.70
74294;DHT22;64044;59.904;10.738;2024-02-16T12:55:50;5.70;74.70
74294;DHT22;64044;59.904;10.738;2024-02-16T12:58:16;5.70;74.80
74294;DHT22;64044;59.904;10.738;2024-02-16T13:00:42;5.70;75.00
74294;DHT22;64044;59.904;10.738;2024-02-16T13:03:07;5.70;75.00
74294;DHT22;64044;59.904;10.738;2024-02-16T13:05:33;5.70;75.00
74294;DHT22;64044;59.904;10.738;2024-02-16T13:08:00;5.70;75.00
74294;DHT22;64044;59.904;10.738;2024-02-16T13:10:25;5.70;75.10
74294;DHT22;64044;59.904;10.738;2024-02-16T13:12:51;5.70;75.20
74294;DHT22;64044;59.904;10.738;2024-02-16T13:15:17;5.70;75.00
74294;DHT22;64044;59.904;10.738;2024-02-16T13:17:43;5.70;74.70
74294;DHT22;64044;59.904;10.738;2024-02-16T13:20:09;5.60;74.50
74294;DHT22;64044;59.904;10.738;2024-02-16T13:22:37;5.60;74.40
74294;DHT22;64044;59.904;10.738;2024-02-16T13:25:04;5.60;74.40
74294;DHT22;64044;59.904;10.738;2024-02-16T13:27:31;5.50;74.40
74294;DHT22;64044;59.904;10.738;2024-02-16T13:29:57;5.50;74.60
74294;DHT22;64044;59.904;10.738;2024-02-16T13:32:23;5.40;74.80
74294;DHT22;64044;59.904;10.738;2024-02-16T13:34:49;5.40;75.10
74294;DHT22;64044;59.904;10.738;2024-02-16T13:37:15;5.40;75.10
74294;DHT22;64044;59.904;10.738;2024-02-16T13:39:40;5.40;75.10
74294;DHT22;64044;59.904;10.738;2024-02-16T13:42:06;5.40;75.20
74294;DHT22;64044;59.904;10.738;2024-02-16T13:44:32;5.40;75.10
74294;DHT22;64044;59.904;10.738;2024-02-16T13:46:58;5.30;75.00
74294;DHT22;64044;59.904;10.738;2024-02-16T13:49:23;5.30;75.00
74294;DHT22;64044;59.904;10.738;2024-02-16T13:51:49;5.30;75.00
74294;DHT22;64044;59.904;10.738;2024-02-16T13:54:15;5.30;75.00
74294;DHT22;64044;59.904;10.738;2024-02-16T13:56:41;5.20;75.00
74294;DHT22;64044;59.904;10.738;2024-02-16T13:59:07;5.20;75.20
74294;DHT22;64044;59.904;10.738;2024-02-16T14:01:33;5.10;75.40
74294;DHT22;64044;59.904;10.738;2024-02-16T14:04:00;5.10;75.60
74294;DHT22;64044;59.904;10.738;2024-02-16T14:06:26;5.10;75.80
74294;DHT22;64044;59.904;10.738;2024-02-16T14:08:52;5.10;75.80
74294;DHT22;64044;59.904;10.738;2024-02-16T14:11:21;5.10;76.00
74294;DHT22;64044;59.904;10.738;2024-02-16T14:13:47;5.10;76.00
74294;DHT22;64044;59.904;10.738;2024-02-16T14:16:39;5.10;76.00
74294;DHT22;64044;59.904;10.738;2024-02-16T14:19:05;5.20;76.60
74294;DHT22;64044;59.904;10.738;2024-02-16T14:21:31;5.20;76.30
74294;DHT22;64044;59.904;10.738;2024-02-16T14:23:58;5.20;76.30
74294;DHT22;64044;59.904;10.738;2024-02-16T14:26:24;5.20;76.30
74294;DHT22;64044;59.904;10.738;2024-02-16T14:28:50;5.20;76.40
74294;DHT22;64044;59.904;10.738;2024-02-16T14:31:15;5.20;76.40
74294;DHT22;64044;59.904;10.738;2024-02-16T14:33:42;5.20;76.30
74294;DHT22;64044;59.904;10.738;2024-02-16T14:36:09;5.20;76.30
74294;DHT22;64044;59.904;10.738;2024-02-16T14:38:35;5.20;76.20
74294;DHT22;64044;59.904;10.738;2024-02-16T14:41:01;5.20;76.30
74294;DHT22;64044;59.904;10.738;2024-02-16T14:43:31;5.30;76.50
74294;DHT22;64044;59.904;10.738;2024-02-16T14:45:58;5.30;76.60
74294;DHT22;64044;59.904;10.738;2024-02-16T14:48:24;5.30;76.60
74294;DHT22;64044;59.904;10.738;2024-02-16T14:50:53;5.30;76.60
74294;DHT22;64044;59.904;10.738;2024-02-16T14:53:23;5.30;76.60
74294;DHT22;64044;59.904;10.738;2024-02-16T14:55:49;5.30;76.50
74294;DHT22;64044;59.904;10.738;2024-02-16T14:58:18;5.30;76.30
74294;DHT22;64044;59.904;10.738;2024-02-16T15:00:43;5.30;76.30
74294;DHT22;64044;59.904;10.738;2024-02-16T15:03:10;5.30;76.20
74294;DHT22;64044;59.904;10.738;2024-02-16T15:05:35;5.30;76.20
74294;DHT22;64044;59.904;10.738;2024-02-16T15:08:02;5.30;76.20
74294;DHT22;64044;59.904;10.738;2024-02-16T15:10:28;5.30;76.20
74294;DHT22;64044;59.904;10.738;2024-02-16T15:12:54;5.30;76.30
74294;DHT22;64044;59.904;10.738;2024-02-16T15:15:20;5.30;76.40
74294;DHT22;64044;59.904;10.738;2024-02-16T15:17:46;5.30;76.30
74294;DHT22;64044;59.904;10.738;2024-02-16T15:20:14;5.30;76.20
74294;DHT22;64044;59.904;10.738;2024-02-16T15:22:40;5.30;76.20
74294;DHT22;64044;59.904;10.738;2024-02-16T15:25:08;5.30;76.20
74294;DHT22;64044;59.904;10.738;2024-02-16T15:27:34;5.30;76.20
74294;DHT22;64044;59.904;10.738;2024-02-16T15:30:02;5.30;76.20
74294;DHT22;64044;59.904;10.738;2024-02-16T15:32:27;5.20;76.20